Time;durP1;ratioP1;P1;durP2;ratioP2;P2;SDS_P1;SDS_P2;PMS_P1;PMS_P2;Temp;Humidity;BMP_temperature;BMP_pressure;BME280_temperature;BME280_humidity;BME280_pressure;Samples;Min_cycle;Max_cycle;Signal;HPM_P1;HPM_P2
2022/09/23 00:02:41;;;;;;;0.13;0.13;;;;;;;20.81;74.33;96261.38;10553857;27;97512;-59
2022/09/23 00:07:44;;;;;;;0.10;0.10;;;;;;;20.82;74.36;96260.34;10542376;27;96761;-60
2022/09/23 00:12:49;;;;;;;0.00;0.00;;;;;;;20.83;74.51;96260.16;10510321;27;96721;-60
2022/09/23 00:17:52;;;;;;;0.15;0.15;;;;;;;20.56;73.94;96270.03;10510202;27;97098;-59
2022/09/23 00:22:56;;;;;;;1.20;0.20;;;;;;;20.27;72.52;96273.97;10485480;27;98303;-60
2022/09/23 00:28:02;;;;;;;0.33;0.30;;;;;;;20.08;71.67;96265.03;10507533;27;98155;-62
2022/09/23 00:33:04;;;;;;;0.30;0.20;;;;;;;19.96;71.46;96273.66;10509460;27;98486;-62
2022/09/23 00:38:07;;;;;;;0.47;0.20;;;;;;;19.85;70.91;96262.84;10525260;27;96868;-60
2022/09/23 00:43:14;;;;;;;0.10;0.10;;;;;;;19.78;70.51;96271.59;10481259;27;96927;-62
2022/09/23 00:48:20;;;;;;;0.32;0.22;;;;;;;19.72;70.02;96267.09;10505845;27;97166;-60
2022/09/23 00:53:25;;;;;;;0.25;0.20;;;;;;;19.66;69.93;96262.59;10508176;27;98140;-62
2022/09/23 00:58:33;;;;;;;0.17;0.17;;;;;;;19.60;69.62;96268.75;10506828;27;97332;-62
2022/09/23 01:03:36;;;;;;;0.22;0.20;;;;;;;19.57;69.43;96264.66;10477302;27;98275;-60
2022/09/23 01:08:40;;;;;;;0.65;0.20;;;;;;;19.55;69.09;96263.22;10513088;27;97068;-62
2022/09/23 01:13:55;;;;;;;0.17;0.17;;;;;;;19.48;68.99;96265.88;10508144;27;97272;-60
2022/09/23 01:19:10;;;;;;;0.30;0.30;;;;;;;19.44;68.73;96267.31;10485017;27;96985;-59
2022/09/23 01:24:55;;;;;;;0.38;0.22;;;;;;;19.37;69.01;96261.19;10531649;27;96878;-60
2022/09/23 01:30:25;;;;;;;0.32;0.20;;;;;;;19.35;68.98;96257.91;10470191;27;96874;-60
2022/09/23 01:35:41;;;;;;;0.10;0.10;;;;;;;19.32;69.18;96260.97;10468841;27;97413;-61
2022/09/23 01:40:50;;;;;;;0.10;0.10;;;;;;;19.27;68.75;96263.44;10534550;27;97102;-62
2022/09/23 01:45:58;;;;;;;0.52;0.22;;;;;;;19.23;68.85;96247.94;10506173;27;97088;-62
2022/09/23 01:51:07;;;;;;;0.45;0.30;;;;;;;19.19;69.07;96257.31;10506471;27;98009;-59
2022/09/23 01:56:16;;;;;;;0.38;0.30;;;;;;;19.14;68.60;96256.25;10471181;27;96764;-60
2022/09/23 02:01:24;;;;;;;0.20;0.20;;;;;;;19.13;68.08;96258.09;10476210;27;97051;-59
2022/09/23 02:06:34;;;;;;;0.45;0.30;;;;;;;19.06;68.21;96251.97;10507755;27;96760;-61
2022/09/23 02:11:38;;;;;;;0.10;0.10;;;;;;;19.04;67.09;96251.38;10520318;27;96896;-62
2022/09/23 02:16:46;;;;;;;0.28;0.20;;;;;;;18.99;66.98;96246.66;10504232;27;96823;-60
2022/09/23 02:21:56;;;;;;;0.38;0.30;;;;;;;18.98;66.16;96238.91;10510687;27;97352;-60
2022/09/23 02:27:08;;;;;;;0.25;0.20;;;;;;;18.97;66.78;96251.34;10535825;27;96691;-61
2022/09/23 02:32:17;;;;;;;0.20;0.20;;;;;;;18.94;66.81;96245.63;10498106;27;97166;-59
2022/09/23 02:37:31;;;;;;;0.43;0.10;;;;;;;18.87;66.53;96249.06;10514174;27;98832;-62
2022/09/23 02:42:46;;;;;;;0.30;0.20;;;;;;;18.82;66.52;96243.53;10523522;27;97816;-60
2022/09/23 02:47:53;;;;;;;0.20;0.10;;;;;;;18.81;66.95;96239.28;10484739;27;98527;-59
2022/09/23 02:52:58;;;;;;;0.03;0.03;;;;;;;18.79;66.72;96238.63;10490734;27;98888;-60
2022/09/23 02:58:02;;;;;;;0.63;0.20;;;;;;;18.77;67.12;96243.31;10478224;27;97207;-59
2022/09/23 03:03:23;;;;;;;0.10;0.10;;;;;;;18.74;67.14;96242.91;10503528;27;98858;-61
2022/09/23 03:08:41;;;;;;;0.20;0.20;;;;;;;18.70;66.89;96247.78;10505178;27;97074;-62
2022/09/23 03:13:57;;;;;;;0.30;0.20;;;;;;;18.67;66.68;96242.88;10503262;27;97187;-62
2022/09/23 03:19:17;;;;;;;0.40;0.25;;;;;;;18.68;66.69;96244.50;10491340;27;97929;-59
2022/09/23 03:24:23;;;;;;;0.20;0.20;;;;;;;18.62;66.65;96246.13;10500549;27;97131;-60
2022/09/23 03:29:27;;;;;;;0.10;0.10;;;;;;;18.57;67.28;96248.56;10509704;27;96768;-62
2022/09/23 03:34:34;;;;;;;0.38;0.28;;;;;;;18.57;66.49;96253.00;10495688;27;97159;-60
2022/09/23 03:39:44;;;;;;;0.13;0.13;;;;;;;18.55;66.87;96247.09;10514542;27;98389;-60
2022/09/23 03:44:49;;;;;;;0.30;0.10;;;;;;;18.53;67.04;96249.13;10508631;27;96779;-59
2022/09/23 03:49:52;;;;;;;0.20;0.20;;;;;;;18.48;67.03;96250.56;10507175;27;96774;-60
2022/09/23 03:54:57;;;;;;;0.37;0.30;;;;;;;18.44;67.29;96254.59;10503832;27;96812;-59
2022/09/23 03:59:59;;;;;;;0.20;0.20;;;;;;;18.42;66.45;96256.63;10507067;27;96845;-61
2022/09/23 04:05:02;;;;;;;0.65;0.30;;;;;;;18.41;66.49;96254.16;10490837;27;96858;-59
2022/09/23 04:10:08;;;;;;;0.55;0.20;;;;;;;18.39;66.70;96251.72;10520065;27;96898;-60
2022/09/23 04:15:11;;;;;;;1.40;0.25;;;;;;;18.37;66.61;96248.44;10506707;27;97642;-62
2022/09/23 04:20:17;;;;;;;0.17;0.17;;;;;;;18.44;66.65;96243.19;10507020;27;97543;-61
2022/09/23 04:25:22;;;;;;;0.22;0.20;;;;;;;18.37;67.20;96243.16;10518869;27;97012;-61
2022/09/23 04:30:24;;;;;;;0.38;0.20;;;;;;;18.34;68.04;96248.84;10504763;27;97648;-61
2022/09/23 04:35:27;;;;;;;0.13;0.13;;;;;;;18.32;68.24;96248.22;10486823;27;97189;-59
2022/09/23 04:40:32;;;;;;;0.43;0.30;;;;;;;18.30;67.71;96253.69;10521366;27;96955;-61
2022/09/23 04:45:35;;;;;;;0.20;0.20;;;;;;;18.30;67.88;96264.28;10502920;27;96941;-59
2022/09/23 04:50:38;;;;;;;0.88;0.30;;;;;;;18.26;67.91;96262.25;10482457;27;97162;-60
2022/09/23 04:55:42;;;;;;;0.20;0.20;;;;;;;18.23;68.30;96266.06;10495050;27;98566;-62
2022/09/23 05:00:46;;;;;;;0.40;0.17;;;;;;;18.21;68.19;96267.28;10501604;27;96783;-60
2022/09/23 05:05:49;;;;;;;0.60;0.22;;;;;;;18.18;67.79;96271.13;10507608;27;96663;-61
2022/09/23 05:10:58;;;;;;;0.20;0.20;;;;;;;18.17;68.37;96273.97;10525850;27;97246;-61
2022/09/23 05:16:02;;;;;;;0.10;0.10;;;;;;;18.13;67.49;96269.09;10495190;27;97145;-59
2022/09/23 05:21:05;;;;;;;0.10;0.10;;;;;;;18.13;67.39;96273.53;10482123;27;96847;-60
2022/09/23 05:26:11;;;;;;;0.25;0.20;;;;;;;18.12;68.30;96267.44;10531176;27;98297;-60
2022/09/23 05:31:16;;;;;;;0.20;0.20;;;;;;;18.13;67.64;96268.25;10503173;27;97110;-63
2022/09/23 05:36:23;;;;;;;1.55;0.20;;;;;;;18.10;68.13;96269.47;10507618;27;96838;-60
2022/09/23 05:41:27;;;;;;;0.82;0.20;;;;;;;18.06;67.94;96278.78;10526832;27;96780;-60
2022/09/23 05:46:30;;;;;;;0.20;0.20;;;;;;;18.06;68.52;96270.84;10503216;27;97695;-60
2022/09/23 05:51:34;;;;;;;0.63;0.20;;;;;;;18.06;68.30;96257.63;10508108;27;97268;-60
2022/09/23 05:56:38;;;;;;;0.20;0.20;;;;;;;18.03;68.75;96267.78;10530868;27;97595;-63
2022/09/23 06:01:43;;;;;;;0.20;0.20;;;;;;;18.01;69.03;96275.94;10504280;27;96885;-60
2022/09/23 06:06:46;;;;;;;0.20;0.20;;;;;;;18.00;68.93;96276.13;10505259;27;97231;-62
2022/09/23 06:11:50;;;;;;;0.40;0.20;;;;;;;18.02;69.45;96277.53;10499421;27;97375;-60
2022/09/23 06:16:53;;;;;;;0.17;0.17;;;;;;;18.01;69.86;96286.50;10505581;27;96777;-60
2022/09/23 06:21:56;;;;;;;0.20;0.20;;;;;;;16.67;73.11;96280.91;10506014;27;97210;-59
2022/09/23 06:27:01;;;;;;;0.28;0.28;;;;;;;14.95;84.91;96281.53;10504779;27;96797;-66
2022/09/23 06:32:04;;;;;;;0.43;0.40;;;;;;;14.51;90.06;96282.09;10503584;27;97222;-62
2022/09/23 06:37:07;;;;;;;0.68;0.40;;;;;;;14.29;92.85;96273.94;10505076;27;97160;-61
2022/09/23 06:51:07;;;;;;;6.50;3.03;;;;;;;13.30;94.34;96270.66;10409126;27;96882;-63
2022/09/23 06:56:11;;;;;;;5.43;3.30;;;;;;;11.48;100.00;96281.41;10371933;28;96731;-62
2022/09/23 07:01:16;;;;;;;5.00;3.10;;;;;;;10.32;100.00;96283.03;10372512;28;97406;-62
2022/09/23 07:06:20;;;;;;;6.90;3.20;;;;;;;9.64;100.00;96297.13;10371859;28;96834;-62
2022/09/23 07:11:23;;;;;;;9.98;3.95;;;;;;;9.14;100.00;96297.28;10371672;28;96781;-62
2022/09/23 07:16:25;;;;;;;7.32;4.00;;;;;;;8.91;100.00;96302.75;10371712;28;96777;-62
2022/09/23 07:21:30;;;;;;;7.57;3.70;;;;;;;8.78;100.00;96299.59;10371455;28;96805;-62
2022/09/23 07:26:33;;;;;;;5.90;4.43;;;;;;;8.73;100.00;96297.41;10370737;28;96738;-62
2022/09/23 07:31:36;;;;;;;5.18;4.00;;;;;;;8.78;100.00;96296.97;10371308;28;97120;-62
2022/09/23 07:36:43;;;;;;;7.55;3.80;;;;;;;8.88;100.00;96305.63;10370909;28;97795;-62
2022/09/23 07:41:45;;;;;;;4.63;3.53;;;;;;;8.93;100.00;96306.06;10370655;28;96632;-61
2022/09/23 07:46:49;;;;;;;8.07;3.88;;;;;;;9.03;100.00;96306.06;10370808;28;96962;-62
2022/09/23 07:51:53;;;;;;;6.15;3.45;;;;;;;9.25;100.00;96304.97;10370271;28;97304;-62
2022/09/23 07:56:56;;;;;;;5.47;4.17;;;;;;;9.50;100.00;96313.22;10370682;28;96816;-62
2022/09/23 08:01:59;;;;;;;7.68;3.03;;;;;;;9.84;100.00;96314.38;10342617;28;96835;-62
2022/09/23 08:07:05;;;;;;;4.30;2.67;;;;;;;10.26;100.00;96309.72;10341841;28;96775;-62
2022/09/23 08:12:09;;;;;;;4.07;2.70;;;;;;;10.54;100.00;96310.56;10341844;28;96792;-63
2022/09/23 08:17:17;;;;;;;5.25;2.63;;;;;;;10.88;100.00;96310.78;10342723;28;96821;-63
2022/09/23 08:22:21;;;;;;;4.82;2.45;;;;;;;11.13;100.00;96313.63;10341862;28;96715;-62
2022/09/23 08:27:24;;;;;;;6.15;2.63;;;;;;;11.35;100.00;96315.00;10342374;28;96700;-62
2022/09/23 08:32:27;;;;;;;3.90;2.72;;;;;;;11.51;100.00;96307.25;10339236;28;97129;-62
2022/09/23 08:37:31;;;;;;;4.57;2.33;;;;;;;11.66;100.00;96309.31;10341905;28;96880;-62
2022/09/23 08:42:39;;;;;;;5.95;2.70;;;;;;;11.78;100.00;96307.28;10338595;28;97016;-62
2022/09/23 08:47:47;;;;;;;4.10;2.40;;;;;;;11.80;100.00;96307.94;10335329;28;97150;-63
2022/09/23 08:52:54;;;;;;;4.97;2.35;;;;;;;11.89;100.00;96310.47;10328436;28;97911;-62
2022/09/23 08:58:20;;;;;;;6.40;2.80;;;;;;;12.05;100.00;96309.75;10325940;28;97026;-62
2022/09/23 09:03:35;;;;;;;4.60;2.70;;;;;;;12.27;100.00;96307.59;10326837;28;97576;-62
2022/09/23 09:08:40;;;;;;;4.38;2.60;;;;;;;12.47;100.00;96295.88;10325798;28;98480;-63
2022/09/23 09:13:51;;;;;;;4.43;2.38;;;;;;;12.68;100.00;96299.88;10316909;28;97066;-63
2022/09/23 09:18:57;;;;;;;5.15;2.78;;;;;;;12.88;100.00;96285.50;10322835;28;97077;-62
2022/09/23 09:24:04;;;;;;;4.40;2.55;;;;;;;12.92;100.00;96290.47;10328510;28;96969;-62
2022/09/23 09:29:12;;;;;;;5.35;2.47;;;;;;;13.06;100.00;96279.31;10315018;28;98537;-63
2022/09/23 09:34:40;;;;;;;5.00;2.63;;;;;;;13.20;100.00;96268.22;10332406;28;100066;-62
2022/09/23 09:39:44;;;;;;;4.40;2.55;;;;;;;13.32;100.00;96260.81;10328926;28;99799;-60
2022/09/23 09:44:51;;;;;;;4.60;2.57;;;;;;;13.36;100.00;96258.69;10326205;28;98474;-60
2022/09/23 09:49:57;;;;;;;5.22;2.60;;;;;;;13.49;100.00;96256.38;10323831;28;97037;-60
2022/09/23 10:00:41;;;;;;;5.90;2.60;;;;;;;13.84;100.00;96248.31;10444868;27;98179;-63
2022/09/23 10:05:49;;;;;;;4.72;2.60;;;;;;;14.14;100.00;96239.69;10399900;27;98336;-63
2022/09/23 10:10:53;;;;;;;5.35;2.40;;;;;;;14.38;100.00;96240.59;10417666;27;99729;-61
2022/09/23 10:15:59;;;;;;;7.33;2.80;;;;;;;14.62;100.00;96231.75;10455888;27;96893;-62
2022/09/23 10:21:11;;;;;;;4.63;2.05;;;;;;;14.86;100.00;96225.53;10444293;27;100324;-64
2022/09/23 10:26:16;;;;;;;3.63;2.28;;;;;;;15.09;100.00;96220.25;10372556;28;96835;-62
2022/09/23 10:31:25;;;;;;;3.17;2.20;;;;;;;15.29;100.00;96212.72;10371575;28;96748;-63
2022/09/23 10:36:29;;;;;;;4.80;2.30;;;;;;;15.46;100.00;96202.84;10417436;27;96652;-62
2022/09/23 10:47:15;;;;;;;2.88;2.25;;;;;;;15.83;100.00;96198.56;10412884;28;96848;-62
2022/09/23 10:52:43;;;;;;;4.40;2.28;;;;;;;15.96;100.00;96183.91;10412444;28;96730;-61
2022/09/23 10:58:04;;;;;;;3.58;2.25;;;;;;;16.21;100.00;96185.25;10439472;27;99588;-62
2022/09/23 11:03:40;;;;;;;4.07;2.15;;;;;;;16.43;100.00;96185.28;10453981;27;96578;-62
2022/09/23 11:09:04;;;;;;;4.47;1.92;;;;;;;16.62;100.00;96182.09;10397521;27;97834;-62
2022/09/23 11:14:27;;;;;;;3.17;2.00;;;;;;;16.89;100.00;96166.53;10384748;28;96666;-62
2022/09/23 11:20:02;;;;;;;4.38;2.03;;;;;;;17.14;100.00;96166.13;10365473;28;97169;-62
2022/09/23 11:25:22;;;;;;;3.75;2.10;;;;;;;17.44;100.00;96152.75;10377704;28;100961;-62
2022/09/23 11:30:31;;;;;;;3.33;2.13;;;;;;;17.75;100.00;96155.81;10381344;28;96792;-62
2022/09/23 11:35:41;;;;;;;5.55;1.95;;;;;;;17.95;100.00;96160.41;10365034;28;97220;-62
2022/09/23 11:40:53;;;;;;;6.65;2.05;;;;;;;18.15;100.00;96154.38;10377918;28;97917;-62
2022/09/23 11:46:00;;;;;;;5.47;1.80;;;;;;;18.39;100.00;96151.22;10374263;28;97881;-62
2022/09/23 11:51:11;;;;;;;5.43;1.80;;;;;;;18.53;100.00;96141.47;10381382;28;97972;-62
2022/09/23 11:56:20;;;;;;;8.40;2.17;;;;;;;18.88;100.00;96136.09;10389664;28;97204;-62
2022/09/23 12:01:43;;;;;;;3.63;1.77;;;;;;;19.01;99.53;96127.34;10395281;28;96839;-63
2022/09/23 12:06:54;;;;;;;3.70;2.05;;;;;;;19.27;99.89;96120.41;10399608;28;98006;-63
2022/09/23 12:12:03;;;;;;;2.53;1.83;;;;;;;19.53;97.60;96103.66;10381227;28;97058;-62
2022/09/23 12:17:36;;;;;;;4.15;1.83;;;;;;;19.78;95.92;96098.47;10381708;28;96699;-62
2022/09/23 12:22:54;;;;;;;4.13;1.83;;;;;;;19.99;94.77;96100.06;10369358;28;96691;-62
2022/09/23 12:28:03;;;;;;;3.25;1.70;;;;;;;20.33;93.95;96104.19;10347010;28;96817;-62
2022/09/23 12:33:15;;;;;;;6.53;1.70;;;;;;;20.50;92.12;96093.09;10382173;28;96684;-62
2022/09/23 12:38:25;;;;;;;4.38;1.70;;;;;;;20.51;90.03;96087.56;10364508;28;96706;-62
2022/09/23 12:43:30;;;;;;;3.47;1.70;;;;;;;20.63;90.13;96076.25;10339548;28;96727;-62
2022/09/23 12:48:47;;;;;;;2.97;1.80;;;;;;;20.50;90.63;96066.56;10414122;28;96816;-62
2022/09/23 12:54:24;;;;;;;3.67;1.80;;;;;;;20.47;90.02;96070.44;10400026;28;96771;-62
2022/09/23 12:59:30;;;;;;;3.85;1.88;;;;;;;20.64;90.27;96076.03;10334412;28;96754;-62
2022/09/23 13:10:14;;;;;;;4.28;1.70;;;;;;;20.98;87.92;96043.94;10317277;28;96916;-62
2022/09/23 13:15:26;;;;;;;3.07;1.70;;;;;;;21.05;86.73;96053.50;10334336;28;96993;-62
2022/09/23 13:20:37;;;;;;;3.47;1.58;;;;;;;21.17;84.01;96053.56;10334252;28;96748;-62
2022/09/23 13:25:42;;;;;;;3.75;1.75;;;;;;;21.58;84.58;96038.03;10346526;28;97184;-63
2022/09/23 13:30:50;;;;;;;3.72;1.73;;;;;;;21.69;83.86;96032.00;10407555;27;98590;-64
2022/09/23 13:35:58;;;;;;;3.65;1.80;;;;;;;21.88;81.09;96035.44;10419410;28;96788;-63
2022/09/23 13:41:07;;;;;;;4.63;1.85;;;;;;;21.62;80.45;96037.41;10412829;27;96869;-63
2022/09/23 13:46:15;;;;;;;4.97;1.83;;;;;;;21.70;81.10;96036.28;10421486;28;96649;-62
2022/09/23 13:51:23;;;;;;;3.85;1.73;;;;;;;21.47;82.39;96047.56;10419432;28;96825;-63
2022/09/23 13:56:30;;;;;;;4.43;2.20;;;;;;;21.59;82.61;96037.81;10378945;28;96841;-62
2022/09/23 14:01:34;;;;;;;3.75;1.80;;;;;;;21.67;83.03;96023.44;10379164;28;97172;-62
2022/09/23 14:06:41;;;;;;;6.53;2.35;;;;;;;21.62;82.65;96016.16;10386756;28;96920;-62
2022/09/23 14:11:45;;;;;;;4.22;1.83;;;;;;;21.54;82.85;96016.41;10386389;28;97915;-62
2022/09/23 14:16:48;;;;;;;;;;;;;;;21.21;83.00;96009.59;10387009;28;96949;-63
2022/09/23 14:21:53;;;;;;;4.03;2.00;;;;;;;21.37;83.55;96012.72;10414569;28;96726;-62
2022/09/23 14:27:00;;;;;;;4.50;1.77;;;;;;;21.30;84.72;96007.47;10378718;28;96759;-62
2022/09/23 14:32:06;;;;;;;4.13;1.88;;;;;;;21.21;85.92;95985.69;10378133;28;96710;-62
2022/09/23 14:42:43;;;;;;;4.72;1.90;;;;;;;21.13;87.08;95983.31;10351037;28;98508;-63
2022/09/23 14:47:49;;;;;;;3.42;1.70;;;;;;;21.06;87.83;95979.94;10385204;28;96612;-63
2022/09/23 14:52:52;;;;;;;5.30;2.00;;;;;;;20.91;88.75;95982.94;10397427;28;98411;-63
2022/09/23 14:58:03;;;;;;;3.80;1.73;;;;;;;20.81;89.20;95982.59;10396238;28;96917;-62
2022/09/23 15:03:15;;;;;;;3.10;2.03;;;;;;;20.70;89.75;95973.50;10426683;28;97060;-62
2022/09/23 15:08:21;;;;;;;3.50;1.80;;;;;;;20.71;90.57;95977.78;10371433;28;97539;-62
2022/09/23 15:13:29;;;;;;;3.88;1.90;;;;;;;20.69;91.26;95974.53;10346557;28;96783;-63
2022/09/23 15:18:35;;;;;;;3.35;1.65;;;;;;;20.78;90.40;95975.91;10343092;28;96866;-62
2022/09/23 15:23:44;;;;;;;3.88;1.50;;;;;;;20.79;90.99;95971.41;10348934;28;96885;-62
2022/09/23 15:28:50;;;;;;;3.78;1.50;;;;;;;20.92;91.21;95974.75;10388122;28;97048;-61
2022/09/23 15:33:54;;;;;;;4.90;1.90;;;;;;;20.97;91.75;95968.78;10382287;28;98520;-61
2022/09/23 15:39:01;;;;;;;3.40;1.70;;;;;;;20.71;93.77;95967.16;10386000;28;97728;-60
2022/09/23 15:44:12;;;;;;;3.55;1.52;;;;;;;20.65;94.46;95958.25;10379399;28;97212;-60
2022/09/23 15:49:23;;;;;;;3.60;1.80;;;;;;;20.54;94.84;95967.69;10379038;28;98181;-60
2022/09/23 15:54:25;;;;;;;5.10;1.88;;;;;;;20.37;95.58;95972.75;10385335;28;97216;-60
2022/09/23 15:59:30;;;;;;;3.80;1.73;;;;;;;20.22;96.58;95961.66;10382032;28;96818;-60
2022/09/23 16:04:34;;;;;;;2.78;1.90;;;;;;;20.10;97.05;95966.03;10381718;28;97617;-61
2022/09/23 16:09:37;;;;;;;3.70;1.92;;;;;;;19.81;99.42;95962.88;10370808;28;98206;-61
2022/09/23 16:14:41;;;;;;;5.43;1.80;;;;;;;19.75;99.97;95953.16;10359704;28;99124;-62
2022/09/23 16:19:44;;;;;;;4.60;1.83;;;;;;;19.63;100.00;95948.50;10372866;28;96757;-60
2022/09/23 16:24:47;;;;;;;7.00;2.40;;;;;;;19.49;100.00;95940.81;10367310;28;96902;-60
2022/09/23 16:29:51;;;;;;;4.57;1.70;;;;;;;19.18;100.00;95937.91;10378499;28;97027;-61
2022/09/23 16:34:57;;;;;;;3.80;1.95;;;;;;;19.02;100.00;95941.03;10389458;27;97040;-60
2022/09/23 16:40:00;;;;;;;5.90;1.77;;;;;;;18.88;100.00;95943.69;10370896;28;96803;-62
2022/09/23 16:45:06;;;;;;;5.10;1.77;;;;;;;18.83;100.00;95945.31;10382811;28;97520;-60
2022/09/23 16:50:09;;;;;;;4.85;1.90;;;;;;;18.70;100.00;95951.41;10384513;27;97522;-61
2022/09/23 16:55:13;;;;;;;3.28;1.50;;;;;;;18.48;100.00;95948.19;10358768;28;97189;-60
2022/09/23 17:05:38;;;;;;;3.05;1.52;;;;;;;18.08;100.00;95937.59;10381946;28;98259;-60
2022/09/23 17:10:41;;;;;;;4.50;1.85;;;;;;;17.97;100.00;95930.28;10367109;28;98813;-60
2022/09/23 17:15:45;;;;;;;4.60;1.70;;;;;;;17.83;100.00;95932.06;10376066;28;97248;-59
2022/09/23 17:20:58;;;;;;;3.70;1.63;;;;;;;17.66;100.00;95929.78;10385574;27;97292;-60
2022/09/23 17:26:01;;;;;;;4.60;1.80;;;;;;;17.54;100.00;95920.81;10363400;28;97158;-60
2022/09/23 17:31:07;;;;;;;5.25;1.80;;;;;;;17.36;100.00;95908.97;10373934;28;97061;-60
2022/09/23 17:36:13;;;;;;;3.42;1.95;;;;;;;17.24;100.00;95893.91;10359911;28;96777;-59
2022/09/23 17:41:16;;;;;;;5.40;1.70;;;;;;;17.11;100.00;95899.94;10376294;28;98181;-59
2022/09/23 17:46:20;;;;;;;4.72;1.70;;;;;;;16.98;100.00;95911.25;10371690;28;97259;-60
2022/09/23 17:51:24;;;;;;;5.00;1.80;;;;;;;16.85;100.00;95917.28;10416953;27;97102;-60
2022/09/23 17:56:28;;;;;;;5.40;2.00;;;;;;;16.75;100.00;95914.19;10367594;28;96797;-61
2022/09/23 18:01:34;;;;;;;3.65;1.77;;;;;;;16.59;100.00;95921.38;10385960;28;96946;-59
2022/09/23 18:06:37;;;;;;;7.18;1.90;;;;;;;16.52;100.00;95917.88;10378711;28;97346;-60
2022/09/23 18:11:42;;;;;;;4.28;2.00;;;;;;;16.48;100.00;95906.06;10392924;28;98680;-59
2022/09/23 18:16:48;;;;;;;3.25;1.80;;;;;;;16.43;100.00;95911.09;10383305;27;96782;-62
2022/09/23 18:21:55;;;;;;;6.10;2.33;;;;;;;16.42;100.00;95907.66;10388824;27;97814;-60
2022/09/23 18:26:58;;;;;;;7.55;2.70;;;;;;;16.46;100.00;95923.91;10388544;27;97831;-59
2022/09/23 18:32:03;;;;;;;5.60;2.30;;;;;;;16.47;100.00;95924.72;10377091;28;97282;-60
2022/09/23 18:37:05;;;;;;;;;;;;;;;16.42;100.00;95933.22;10371921;28;96943;-61
2022/09/23 18:42:18;;;;;;;4.45;2.53;;;;;;;16.49;100.00;95943.81;10395015;28;97068;-59
2022/09/23 18:52:39;;;;;;;6.25;3.40;;;;;;;16.46;100.00;95929.19;10392828;28;97410;-60
2022/09/23 18:57:41;;;;;;;5.43;2.63;;;;;;;16.42;100.00;95927.94;10384577;28;97700;-60
2022/09/23 19:02:45;;;;;;;3.05;2.22;;;;;;;16.37;100.00;95935.63;10377413;28;97851;-60
2022/09/23 19:07:48;;;;;;;3.90;2.00;;;;;;;16.29;100.00;95933.91;10393811;28;99083;-62
2022/09/23 19:12:51;;;;;;;4.05;2.63;;;;;;;16.27;100.00;95921.94;10384603;28;97210;-60
2022/09/23 19:17:55;;;;;;;4.40;2.38;;;;;;;16.14;100.00;95928.75;10378808;28;97102;-59
2022/09/23 19:22:58;;;;;;;10.50;5.60;;;;;;;15.97;100.00;95908.94;10374645;28;98854;-60
2022/09/23 19:28:04;;;;;;;6.72;3.78;;;;;;;15.90;100.00;95914.16;10350957;28;98690;-61
2022/09/23 19:33:08;;;;;;;4.72;2.55;;;;;;;15.63;100.00;95918.34;10377012;28;97075;-60
2022/09/23 19:38:11;;;;;;;4.20;2.72;;;;;;;15.55;100.00;95928.94;10384189;28;96977;-59
2022/09/23 19:43:15;;;;;;;3.42;2.47;;;;;;;15.49;100.00;95926.09;10380948;28;98413;-58
2022/09/23 19:48:19;;;;;;;4.93;2.70;;;;;;;15.48;100.00;95934.16;10381016;28;97319;-56
2022/09/23 19:53:22;;;;;;;3.40;2.13;;;;;;;15.44;100.00;95941.63;10371594;28;98463;-57
2022/09/23 19:58:29;;;;;;;4.18;2.10;;;;;;;15.41;100.00;95941.97;10362742;28;97085;-59
2022/09/23 20:03:34;;;;;;;4.15;2.38;;;;;;;15.35;100.00;95929.53;10385685;28;97255;-58
2022/09/23 20:08:37;;;;;;;4.93;2.80;;;;;;;15.26;100.00;95933.28;10379147;28;97356;-56
2022/09/23 20:13:41;;;;;;;5.97;3.22;;;;;;;15.13;100.00;95937.41;10381790;28;96930;-59
2022/09/23 20:18:46;;;;;;;5.43;2.70;;;;;;;15.05;100.00;95937.50;10377583;28;96933;-60
2022/09/23 20:23:49;;;;;;;4.50;2.85;;;;;;;15.02;100.00;95934.41;10378398;28;96804;-60
2022/09/23 20:28:51;;;;;;;5.22;2.70;;;;;;;15.02;100.00;95931.78;10381130;28;97172;-59
2022/09/23 20:33:57;;;;;;;4.13;2.53;;;;;;;15.04;100.00;95925.31;10380373;28;96876;-60
2022/09/23 20:39:04;;;;;;;6.05;3.60;;;;;;;15.06;100.00;95923.34;10382206;28;96964;-60
2022/09/23 20:44:11;;;;;;;3.30;2.38;;;;;;;15.07;100.00;95934.69;10380134;28;96751;-60
2022/09/23 20:49:16;;;;;;;3.50;2.40;;;;;;;15.01;100.00;95938.03;10377627;28;97281;-60
2022/09/23 20:54:19;;;;;;;4.13;2.60;;;;;;;15.07;100.00;95940.75;10353548;28;97606;-60
2022/09/23 20:59:26;;;;;;;5.53;2.80;;;;;;;15.13;100.00;95942.66;10377784;28;97651;-60
2022/09/23 21:04:30;;;;;;;5.95;2.45;;;;;;;15.19;100.00;95949.00;10343622;28;98895;-60
2022/09/23 21:09:33;;;;;;;3.37;2.00;;;;;;;15.25;100.00;95947.44;10362279;28;98819;-60
2022/09/23 21:14:35;;;;;;;5.68;2.50;;;;;;;15.31;100.00;95946.72;10377106;28;96846;-60
2022/09/23 21:19:40;;;;;;;4.95;2.83;;;;;;;15.39;100.00;95949.25;10362118;28;97355;-60
2022/09/23 21:24:43;;;;;;;8.00;2.67;;;;;;;15.41;100.00;95951.66;10361529;28;96845;-59
2022/09/23 21:30:06;;;;;;;4.88;2.75;;;;;;;15.41;100.00;95954.31;10357748;28;96898;-62
2022/09/23 21:35:10;;;;;;;5.22;2.70;;;;;;;15.42;100.00;95961.22;10375842;28;97904;-60
2022/09/23 21:45:33;;;;;;;4.07;2.50;;;;;;;15.40;100.00;95953.50;10360735;28;97700;-60
2022/09/23 21:50:39;;;;;;;4.93;2.90;;;;;;;15.37;100.00;95960.94;10374686;28;96858;-60
2022/09/23 21:55:42;;;;;;;5.55;2.53;;;;;;;15.33;100.00;95944.72;10344714;28;97693;-60
2022/09/23 22:00:45;;;;;;;7.82;2.63;;;;;;;15.25;100.00;95953.53;10360577;28;97181;-59
2022/09/23 22:06:00;;;;;;;5.95;2.65;;;;;;;15.15;100.00;95950.38;10376815;28;96881;-60
2022/09/23 22:11:05;;;;;;;4.82;2.92;;;;;;;15.07;100.00;95940.75;10376869;28;96857;-60
2022/09/23 22:16:08;;;;;;;3.85;2.35;;;;;;;15.02;100.00;95943.13;10373348;28;97657;-60
2022/09/23 22:21:12;;;;;;;6.88;2.95;;;;;;;15.00;100.00;95945.13;10376581;28;96652;-63
2022/09/23 22:26:15;;;;;;;6.13;3.17;;;;;;;14.96;100.00;95943.84;10359547;28;96765;-59
2022/09/23 22:36:39;;;;;;;8.10;3.33;;;;;;;14.88;100.00;95938.69;10375711;28;96735;-60
2022/09/23 22:41:42;;;;;;;8.87;3.10;;;;;;;14.84;100.00;95934.78;10367770;28;96992;-60
2022/09/23 22:46:45;;;;;;;5.85;2.97;;;;;;;14.82;100.00;95932.34;10373251;28;98623;-60
2022/09/23 22:51:51;;;;;;;6.90;3.42;;;;;;;14.79;100.00;95927.44;10370640;28;98555;-60
2022/09/23 22:56:54;;;;;;;4.15;2.92;;;;;;;14.86;100.00;95927.53;10373938;28;97124;-60
2022/09/23 23:01:59;;;;;;;5.85;3.30;;;;;;;14.82;100.00;95923.63;10370458;28;97257;-61
2022/09/23 23:07:05;;;;;;;6.18;2.95;;;;;;;14.68;100.00;95918.19;10379137;28;96864;-61
2022/09/23 23:12:08;;;;;;;3.53;2.83;;;;;;;14.51;100.00;95914.91;10370151;28;96855;-60
2022/09/23 23:17:11;;;;;;;4.72;3.30;;;;;;;14.43;100.00;95914.19;10367933;28;96875;-60
2022/09/23 23:22:15;;;;;;;4.45;2.88;;;;;;;14.31;100.00;95904.09;10403065;28;97231;-60
2022/09/23 23:27:18;;;;;;;4.00;2.83;;;;;;;14.19;100.00;95903.72;10397119;27;96928;-61
2022/09/23 23:32:20;;;;;;;3.97;2.58;;;;;;;14.00;100.00;95912.06;10378018;28;98345;-60
2022/09/23 23:37:24;;;;;;;3.63;2.70;;;;;;;13.97;100.00;95908.00;10374743;28;97316;-63
2022/09/23 23:42:27;;;;;;;3.90;2.67;;;;;;;13.81;100.00;95903.69;10377517;28;97106;-61
2022/09/23 23:47:30;;;;;;;4.65;2.45;;;;;;;13.74;100.00;95897.53;10376834;28;96867;-60
2022/09/23 23:52:34;;;;;;;3.60;3.30;;;;;;;13.73;100.00;95910.81;10399592;28;98006;-61
2022/09/23 23:57:38;;;;;;;3.70;3.37;;;;;;;13.74;100.00;95899.31;10384914;28;98274;-62
